sensor_id;sensor_type;location;lat;lon;timestamp;P1;durP1;ratioP1;P2;durP2;ratioP2
32399;SDS011;45045;45.440;9.178;2023-07-08T00:00:19;12.55;;;5.40;;
32399;SDS011;45045;45.440;9.178;2023-07-08T00:02:46;9.00;;;5.07;;
32399;SDS011;45045;45.440;9.178;2023-07-08T00:05:13;12.23;;;5.45;;
32399;SDS011;45045;45.440;9.178;2023-07-08T00:07:40;8.45;;;5.30;;
32399;SDS011;45045;45.440;9.178;2023-07-08T00:12:35;11.50;;;5.20;;
32399;SDS011;45045;45.440;9.178;2023-07-08T00:15:01;10.80;;;5.70;;
32399;SDS011;45045;45.440;9.178;2023-07-08T00:17:26;10.57;;;6.10;;
32399;SDS011;45045;45.440;9.178;2023-07-08T00:19:52;10.48;;;5.68;;
32399;SDS011;45045;45.440;9.178;2023-07-08T00:22:19;12.70;;;5.45;;
32399;SDS011;45045;45.440;9.178;2023-07-08T00:24:45;9.45;;;5.50;;
32399;SDS011;45045;45.440;9.178;2023-07-08T00:27:11;11.48;;;5.40;;
32399;SDS011;45045;45.440;9.178;2023-07-08T00:29:38;8.00;;;4.85;;
32399;SDS011;45045;45.440;9.178;2023-07-08T00:32:08;10.02;;;5.93;;
32399;SDS011;45045;45.440;9.178;2023-07-08T00:34:41;12.15;;;6.25;;
32399;SDS011;45045;45.440;9.178;2023-07-08T00:37:12;8.65;;;5.07;;
32399;SDS011;45045;45.440;9.178;2023-07-08T00:39:39;11.57;;;5.43;;
32399;SDS011;45045;45.440;9.178;2023-07-08T00:42:38;8.15;;;5.07;;
32399;SDS011;45045;45.440;9.178;2023-07-08T00:47:23;9.15;;;5.40;;
32399;SDS011;45045;45.440;9.178;2023-07-08T00:49:59;9.82;;;5.55;;
32399;SDS011;45045;45.440;9.178;2023-07-08T00:52:30;9.00;;;4.97;;
32399;SDS011;45045;45.440;9.178;2023-07-08T00:54:57;9.88;;;5.82;;
32399;SDS011;45045;45.440;9.178;2023-07-08T00:57:26;12.50;;;5.65;;
32399;SDS011;45045;45.440;9.178;2023-07-08T01:00:03;10.57;;;5.90;;
32399;SDS011;45045;45.440;9.178;2023-07-08T01:02:32;12.38;;;5.57;;
32399;SDS011;45045;45.440;9.178;2023-07-08T01:05:06;8.65;;;5.10;;
32399;SDS011;45045;45.440;9.178;2023-07-08T01:07:36;8.55;;;5.25;;
32399;SDS011;45045;45.440;9.178;2023-07-08T01:10:10;9.75;;;5.43;;
32399;SDS011;45045;45.440;9.178;2023-07-08T01:12:41;11.60;;;5.93;;
32399;SDS011;45045;45.440;9.178;2023-07-08T01:15:13;8.75;;;5.65;;
32399;SDS011;45045;45.440;9.178;2023-07-08T01:17:39;11.00;;;5.28;;
32399;SDS011;45045;45.440;9.178;2023-07-08T01:20:07;8.43;;;4.95;;
32399;SDS011;45045;45.440;9.178;2023-07-08T01:22:38;11.32;;;5.28;;
32399;SDS011;45045;45.440;9.178;2023-07-08T01:25:05;9.50;;;5.30;;
32399;SDS011;45045;45.440;9.178;2023-07-08T01:27:38;9.00;;;5.43;;
32399;SDS011;45045;45.440;9.178;2023-07-08T01:30:06;8.75;;;5.10;;
32399;SDS011;45045;45.440;9.178;2023-07-08T01:32:33;7.47;;;4.50;;
32399;SDS011;45045;45.440;9.178;2023-07-08T01:35:01;8.88;;;5.32;;
32399;SDS011;45045;45.440;9.178;2023-07-08T01:37:33;8.32;;;4.53;;
32399;SDS011;45045;45.440;9.178;2023-07-08T01:42:54;10.27;;;4.55;;
32399;SDS011;45045;45.440;9.178;2023-07-08T01:45:21;8.55;;;4.72;;
32399;SDS011;45045;45.440;9.178;2023-07-08T01:47:49;8.90;;;4.70;;
32399;SDS011;45045;45.440;9.178;2023-07-08T01:50:20;10.90;;;4.88;;
32399;SDS011;45045;45.440;9.178;2023-07-08T01:52:47;9.07;;;4.80;;
32399;SDS011;45045;45.440;9.178;2023-07-08T01:55:15;10.73;;;4.88;;
32399;SDS011;45045;45.440;9.178;2023-07-08T01:57:40;7.65;;;4.47;;
32399;SDS011;45045;45.440;9.178;2023-07-08T02:00:06;9.45;;;4.78;;
32399;SDS011;45045;45.440;9.178;2023-07-08T02:02:33;8.25;;;4.57;;
32399;SDS011;45045;45.440;9.178;2023-07-08T02:04:58;8.93;;;4.65;;
32399;SDS011;45045;45.440;9.178;2023-07-08T02:07:24;7.47;;;4.45;;
32399;SDS011;45045;45.440;9.178;2023-07-08T02:09:49;9.88;;;4.38;;
32399;SDS011;45045;45.440;9.178;2023-07-08T02:12:15;9.27;;;4.60;;
32399;SDS011;45045;45.440;9.178;2023-07-08T02:14:41;10.68;;;4.45;;
32399;SDS011;45045;45.440;9.178;2023-07-08T02:17:06;10.35;;;4.55;;
32399;SDS011;45045;45.440;9.178;2023-07-08T02:19:32;7.90;;;4.50;;
32399;SDS011;45045;45.440;9.178;2023-07-08T02:21:58;8.80;;;4.60;;
32399;SDS011;45045;45.440;9.178;2023-07-08T02:24:23;7.28;;;3.92;;
32399;SDS011;45045;45.440;9.178;2023-07-08T02:26:49;8.98;;;4.35;;
32399;SDS011;45045;45.440;9.178;2023-07-08T02:29:15;7.63;;;4.63;;
32399;SDS011;45045;45.440;9.178;2023-07-08T02:31:40;8.27;;;4.38;;
32399;SDS011;45045;45.440;9.178;2023-07-08T02:34:06;6.88;;;3.80;;
32399;SDS011;45045;45.440;9.178;2023-07-08T02:36:32;9.05;;;4.20;;
32399;SDS011;45045;45.440;9.178;2023-07-08T02:38:59;6.03;;;3.40;;
32399;SDS011;45045;45.440;9.178;2023-07-08T02:41:24;6.40;;;3.90;;
32399;SDS011;45045;45.440;9.178;2023-07-08T02:43:50;7.90;;;4.20;;
32399;SDS011;45045;45.440;9.178;2023-07-08T02:46:15;7.95;;;3.88;;
32399;SDS011;45045;45.440;9.178;2023-07-08T02:48:41;10.57;;;4.85;;
32399;SDS011;45045;45.440;9.178;2023-07-08T02:51:07;5.97;;;3.92;;
32399;SDS011;45045;45.440;9.178;2023-07-08T02:53:34;9.75;;;4.53;;
32399;SDS011;45045;45.440;9.178;2023-07-08T02:56:00;7.68;;;4.47;;
32399;SDS011;45045;45.440;9.178;2023-07-08T02:58:26;7.45;;;4.32;;
32399;SDS011;45045;45.440;9.178;2023-07-08T03:00:52;9.68;;;4.60;;
32399;SDS011;45045;45.440;9.178;2023-07-08T03:03:18;8.85;;;3.90;;
32399;SDS011;45045;45.440;9.178;2023-07-08T03:05:44;7.95;;;3.75;;
32399;SDS011;45045;45.440;9.178;2023-07-08T03:08:18;7.78;;;4.22;;
32399;SDS011;45045;45.440;9.178;2023-07-08T03:10:46;8.55;;;4.40;;
32399;SDS011;45045;45.440;9.178;2023-07-08T03:13:19;9.55;;;4.65;;
32399;SDS011;45045;45.440;9.178;2023-07-08T03:15:45;6.97;;;4.03;;
32399;SDS011;45045;45.440;9.178;2023-07-08T03:18:10;8.90;;;4.45;;
32399;SDS011;45045;45.440;9.178;2023-07-08T03:20:38;9.43;;;4.43;;
32399;SDS011;45045;45.440;9.178;2023-07-08T03:23:05;8.68;;;4.05;;
32399;SDS011;45045;45.440;9.178;2023-07-08T03:25:30;8.88;;;3.78;;
32399;SDS011;45045;45.440;9.178;2023-07-08T03:27:56;9.18;;;4.10;;
32399;SDS011;45045;45.440;9.178;2023-07-08T03:30:22;8.98;;;4.18;;
32399;SDS011;45045;45.440;9.178;2023-07-08T03:32:48;10.90;;;4.20;;
32399;SDS011;45045;45.440;9.178;2023-07-08T03:35:14;6.25;;;3.40;;
32399;SDS011;45045;45.440;9.178;2023-07-08T03:37:39;7.63;;;3.78;;
32399;SDS011;45045;45.440;9.178;2023-07-08T03:40:07;6.00;;;4.00;;
32399;SDS011;45045;45.440;9.178;2023-07-08T03:42:34;7.45;;;3.85;;
32399;SDS011;45045;45.440;9.178;2023-07-08T03:45:00;7.03;;;3.70;;
32399;SDS011;45045;45.440;9.178;2023-07-08T03:47:26;7.07;;;3.97;;
32399;SDS011;45045;45.440;9.178;2023-07-08T03:49:51;6.90;;;3.90;;
32399;SDS011;45045;45.440;9.178;2023-07-08T03:52:17;7.60;;;4.05;;
32399;SDS011;45045;45.440;9.178;2023-07-08T03:54:43;9.32;;;4.32;;
32399;SDS011;45045;45.440;9.178;2023-07-08T03:57:09;6.90;;;3.85;;
32399;SDS011;45045;45.440;9.178;2023-07-08T03:59:35;6.70;;;4.05;;
32399;SDS011;45045;45.440;9.178;2023-07-08T04:02:00;6.57;;;3.75;;
32399;SDS011;45045;45.440;9.178;2023-07-08T04:04:26;7.80;;;4.10;;
32399;SDS011;45045;45.440;9.178;2023-07-08T04:06:51;9.95;;;4.70;;
32399;SDS011;45045;45.440;9.178;2023-07-08T04:09:18;7.50;;;3.60;;
32399;SDS011;45045;45.440;9.178;2023-07-08T04:11:44;12.63;;;4.05;;
32399;SDS011;45045;45.440;9.178;2023-07-08T04:14:09;9.00;;;4.30;;
32399;SDS011;45045;45.440;9.178;2023-07-08T04:16:51;9.18;;;4.03;;
32399;SDS011;45045;45.440;9.178;2023-07-08T04:19:22;7.22;;;3.83;;
32399;SDS011;45045;45.440;9.178;2023-07-08T04:21:48;7.63;;;4.00;;
32399;SDS011;45045;45.440;9.178;2023-07-08T04:24:15;7.82;;;3.85;;
32399;SDS011;45045;45.440;9.178;2023-07-08T04:26:42;7.00;;;4.05;;
32399;SDS011;45045;45.440;9.178;2023-07-08T04:29:15;8.82;;;3.78;;
32399;SDS011;45045;45.440;9.178;2023-07-08T04:31:42;7.45;;;3.78;;
32399;SDS011;45045;45.440;9.178;2023-07-08T04:34:08;7.60;;;3.50;;
32399;SDS011;45045;45.440;9.178;2023-07-08T04:36:34;7.63;;;4.35;;
32399;SDS011;45045;45.440;9.178;2023-07-08T04:39:02;8.68;;;3.83;;
32399;SDS011;45045;45.440;9.178;2023-07-08T04:41:28;7.30;;;3.85;;
32399;SDS011;45045;45.440;9.178;2023-07-08T04:43:54;7.82;;;4.15;;
32399;SDS011;45045;45.440;9.178;2023-07-08T04:49:00;8.02;;;3.88;;
32399;SDS011;45045;45.440;9.178;2023-07-08T04:51:28;7.20;;;3.63;;
32399;SDS011;45045;45.440;9.178;2023-07-08T04:53:54;7.35;;;3.97;;
32399;SDS011;45045;45.440;9.178;2023-07-08T04:56:19;8.05;;;3.50;;
32399;SDS011;45045;45.440;9.178;2023-07-08T04:58:45;6.00;;;3.50;;
32399;SDS011;45045;45.440;9.178;2023-07-08T05:01:11;5.22;;;3.38;;
32399;SDS011;45045;45.440;9.178;2023-07-08T05:03:36;6.75;;;3.60;;
32399;SDS011;45045;45.440;9.178;2023-07-08T05:06:02;8.25;;;4.22;;
32399;SDS011;45045;45.440;9.178;2023-07-08T05:08:28;7.00;;;3.38;;
32399;SDS011;45045;45.440;9.178;2023-07-08T05:10:53;8.05;;;3.80;;
32399;SDS011;45045;45.440;9.178;2023-07-08T05:13:19;7.40;;;3.70;;
32399;SDS011;45045;45.440;9.178;2023-07-08T05:15:45;10.77;;;4.20;;
32399;SDS011;45045;45.440;9.178;2023-07-08T05:18:12;7.88;;;4.03;;
32399;SDS011;45045;45.440;9.178;2023-07-08T05:20:38;6.30;;;3.60;;
32399;SDS011;45045;45.440;9.178;2023-07-08T05:23:04;8.45;;;4.53;;
32399;SDS011;45045;45.440;9.178;2023-07-08T05:25:31;8.63;;;4.18;;
32399;SDS011;45045;45.440;9.178;2023-07-08T05:27:57;8.48;;;3.83;;
32399;SDS011;45045;45.440;9.178;2023-07-08T05:30:23;9.48;;;4.18;;
32399;SDS011;45045;45.440;9.178;2023-07-08T05:32:48;8.95;;;4.05;;
32399;SDS011;45045;45.440;9.178;2023-07-08T05:35:14;8.30;;;4.38;;
32399;SDS011;45045;45.440;9.178;2023-07-08T05:37:40;8.10;;;4.32;;
32399;SDS011;45045;45.440;9.178;2023-07-08T05:40:09;10.25;;;4.20;;
32399;SDS011;45045;45.440;9.178;2023-07-08T05:42:35;6.75;;;3.95;;
32399;SDS011;45045;45.440;9.178;2023-07-08T05:45:01;6.82;;;4.22;;
32399;SDS011;45045;45.440;9.178;2023-07-08T05:47:28;8.80;;;4.10;;
32399;SDS011;45045;45.440;9.178;2023-07-08T05:49:53;6.93;;;4.10;;
32399;SDS011;45045;45.440;9.178;2023-07-08T05:52:19;7.53;;;4.07;;
32399;SDS011;45045;45.440;9.178;2023-07-08T05:54:44;8.15;;;4.35;;
32399;SDS011;45045;45.440;9.178;2023-07-08T05:57:11;8.35;;;3.75;;
32399;SDS011;45045;45.440;9.178;2023-07-08T05:59:37;7.88;;;3.80;;
32399;SDS011;45045;45.440;9.178;2023-07-08T06:02:04;9.32;;;4.07;;
32399;SDS011;45045;45.440;9.178;2023-07-08T06:04:30;6.93;;;3.75;;
32399;SDS011;45045;45.440;9.178;2023-07-08T06:06:56;6.65;;;4.13;;
32399;SDS011;45045;45.440;9.178;2023-07-08T06:09:22;6.93;;;4.03;;
32399;SDS011;45045;45.440;9.178;2023-07-08T06:11:47;9.63;;;4.10;;
32399;SDS011;45045;45.440;9.178;2023-07-08T06:14:13;9.38;;;4.07;;
32399;SDS011;45045;45.440;9.178;2023-07-08T06:16:39;6.95;;;3.67;;
32399;SDS011;45045;45.440;9.178;2023-07-08T06:19:04;8.52;;;4.15;;
32399;SDS011;45045;45.440;9.178;2023-07-08T06:21:30;8.57;;;3.92;;
32399;SDS011;45045;45.440;9.178;2023-07-08T06:23:56;7.75;;;3.67;;
32399;SDS011;45045;45.440;9.178;2023-07-08T06:26:22;9.13;;;3.85;;
32399;SDS011;45045;45.440;9.178;2023-07-08T06:28:48;6.20;;;3.80;;
32399;SDS011;45045;45.440;9.178;2023-07-08T06:31:14;7.30;;;3.72;;
32399;SDS011;45045;45.440;9.178;2023-07-08T06:33:40;9.02;;;3.55;;
32399;SDS011;45045;45.440;9.178;2023-07-08T06:36:05;7.80;;;4.03;;
32399;SDS011;45045;45.440;9.178;2023-07-08T06:38:32;6.50;;;3.80;;
32399;SDS011;45045;45.440;9.178;2023-07-08T06:40:58;7.15;;;3.92;;
32399;SDS011;45045;45.440;9.178;2023-07-08T06:43:24;8.60;;;4.13;;
32399;SDS011;45045;45.440;9.178;2023-07-08T06:45:49;7.22;;;4.15;;
32399;SDS011;45045;45.440;9.178;2023-07-08T06:48:15;6.63;;;3.63;;
32399;SDS011;45045;45.440;9.178;2023-07-08T06:50:47;6.85;;;3.63;;
32399;SDS011;45045;45.440;9.178;2023-07-08T06:53:13;8.02;;;4.38;;
32399;SDS011;45045;45.440;9.178;2023-07-08T06:55:40;7.55;;;3.67;;
32399;SDS011;45045;45.440;9.178;2023-07-08T06:58:05;7.80;;;3.95;;
32399;SDS011;45045;45.440;9.178;2023-07-08T07:00:31;9.30;;;4.75;;
32399;SDS011;45045;45.440;9.178;2023-07-08T07:02:57;7.78;;;4.25;;
32399;SDS011;45045;45.440;9.178;2023-07-08T07:05:22;7.03;;;4.13;;
32399;SDS011;45045;45.440;9.178;2023-07-08T07:07:48;7.50;;;4.20;;
32399;SDS011;45045;45.440;9.178;2023-07-08T07:10:14;8.27;;;4.38;;
32399;SDS011;45045;45.440;9.178;2023-07-08T07:12:39;7.57;;;3.92;;
32399;SDS011;45045;45.440;9.178;2023-07-08T07:15:05;8.23;;;4.07;;
32399;SDS011;45045;45.440;9.178;2023-07-08T07:17:31;11.93;;;4.47;;
32399;SDS011;45045;45.440;9.178;2023-07-08T07:19:57;7.03;;;3.95;;
32399;SDS011;45045;45.440;9.178;2023-07-08T07:22:22;7.78;;;4.32;;
32399;SDS011;45045;45.440;9.178;2023-07-08T07:24:48;8.05;;;4.32;;
32399;SDS011;45045;45.440;9.178;2023-07-08T07:27:14;7.18;;;4.18;;
32399;SDS011;45045;45.440;9.178;2023-07-08T07:29:41;8.65;;;4.32;;
32399;SDS011;45045;45.440;9.178;2023-07-08T07:32:09;9.18;;;4.47;;
32399;SDS011;45045;45.440;9.178;2023-07-08T07:34:35;7.13;;;3.83;;
32399;SDS011;45045;45.440;9.178;2023-07-08T07:37:03;7.07;;;3.95;;
32399;SDS011;45045;45.440;9.178;2023-07-08T07:39:29;7.25;;;4.05;;
32399;SDS011;45045;45.440;9.178;2023-07-08T07:41:54;7.38;;;3.92;;
32399;SDS011;45045;45.440;9.178;2023-07-08T07:44:20;10.75;;;4.50;;
32399;SDS011;45045;45.440;9.178;2023-07-08T07:46:45;7.53;;;4.68;;
32399;SDS011;45045;45.440;9.178;2023-07-08T07:49:12;8.35;;;4.20;;
32399;SDS011;45045;45.440;9.178;2023-07-08T07:51:38;8.35;;;3.92;;
32399;SDS011;45045;45.440;9.178;2023-07-08T07:54:04;8.70;;;4.50;;
32399;SDS011;45045;45.440;9.178;2023-07-08T07:56:29;7.63;;;4.22;;
32399;SDS011;45045;45.440;9.178;2023-07-08T07:58:55;7.85;;;4.30;;
32399;SDS011;45045;45.440;9.178;2023-07-08T08:01:20;6.70;;;4.10;;
32399;SDS011;45045;45.440;9.178;2023-07-08T08:03:46;9.80;;;4.30;;
32399;SDS011;45045;45.440;9.178;2023-07-08T08:06:15;7.25;;;4.35;;
32399;SDS011;45045;45.440;9.178;2023-07-08T08:08:42;6.75;;;4.22;;
32399;SDS011;45045;45.440;9.178;2023-07-08T08:11:08;6.70;;;4.35;;
32399;SDS011;45045;45.440;9.178;2023-07-08T08:13:34;7.00;;;3.95;;
32399;SDS011;45045;45.440;9.178;2023-07-08T08:16:00;9.75;;;4.10;;
32399;SDS011;45045;45.440;9.178;2023-07-08T08:18:27;5.95;;;3.85;;
32399;SDS011;45045;45.440;9.178;2023-07-08T08:20:52;9.55;;;3.83;;
32399;SDS011;45045;45.440;9.178;2023-07-08T08:23:18;6.32;;;3.90;;
32399;SDS011;45045;45.440;9.178;2023-07-08T08:25:44;6.45;;;4.00;;
32399;SDS011;45045;45.440;9.178;2023-07-08T08:28:09;7.78;;;4.00;;
32399;SDS011;45045;45.440;9.178;2023-07-08T08:30:35;8.00;;;4.20;;
32399;SDS011;45045;45.440;9.178;2023-07-08T08:33:01;8.02;;;3.95;;
32399;SDS011;45045;45.440;9.178;2023-07-08T08:35:27;7.10;;;4.18;;
32399;SDS011;45045;45.440;9.178;2023-07-08T08:37:53;8.18;;;3.63;;
32399;SDS011;45045;45.440;9.178;2023-07-08T08:40:19;8.20;;;3.17;;
32399;SDS011;45045;45.440;9.178;2023-07-08T08:45:22;8.45;;;3.40;;
32399;SDS011;45045;45.440;9.178;2023-07-08T08:47:51;7.07;;;3.50;;
32399;SDS011;45045;45.440;9.178;2023-07-08T08:50:32;7.32;;;3.45;;
32399;SDS011;45045;45.440;9.178;2023-07-08T08:52:59;7.55;;;3.10;;
32399;SDS011;45045;45.440;9.178;2023-07-08T08:55:28;4.95;;;3.25;;
32399;SDS011;45045;45.440;9.178;2023-07-08T09:00:56;5.20;;;3.33;;
32399;SDS011;45045;45.440;9.178;2023-07-08T09:03:47;6.65;;;3.85;;
32399;SDS011;45045;45.440;9.178;2023-07-08T09:06:20;7.93;;;3.67;;
32399;SDS011;45045;45.440;9.178;2023-07-08T09:08:47;6.68;;;3.92;;
32399;SDS011;45045;45.440;9.178;2023-07-08T09:13:40;6.10;;;3.58;;
32399;SDS011;45045;45.440;9.178;2023-07-08T09:16:07;5.63;;;3.25;;
32399;SDS011;45045;45.440;9.178;2023-07-08T09:19:03;6.18;;;3.50;;
32399;SDS011;45045;45.440;9.178;2023-07-08T09:22:20;9.30;;;4.32;;
32399;SDS011;45045;45.440;9.178;2023-07-08T09:27:18;8.25;;;4.43;;
32399;SDS011;45045;45.440;9.178;2023-07-08T09:29:45;7.25;;;3.33;;
32399;SDS011;45045;45.440;9.178;2023-07-08T09:32:14;5.70;;;3.65;;
32399;SDS011;45045;45.440;9.178;2023-07-08T09:34:52;9.95;;;4.40;;
32399;SDS011;45045;45.440;9.178;2023-07-08T09:37:23;6.35;;;3.80;;
32399;SDS011;45045;45.440;9.178;2023-07-08T09:39:54;7.65;;;4.55;;
32399;SDS011;45045;45.440;9.178;2023-07-08T09:42:21;7.60;;;4.40;;
32399;SDS011;45045;45.440;9.178;2023-07-08T09:44:54;11.27;;;6.00;;
32399;SDS011;45045;45.440;9.178;2023-07-08T09:47:27;7.05;;;4.20;;
32399;SDS011;45045;45.440;9.178;2023-07-08T09:49:58;7.70;;;3.75;;
32399;SDS011;45045;45.440;9.178;2023-07-08T09:52:25;8.95;;;6.20;;
32399;SDS011;45045;45.440;9.178;2023-07-08T09:54:54;8.95;;;4.57;;
32399;SDS011;45045;45.440;9.178;2023-07-08T09:57:27;8.05;;;4.25;;
32399;SDS011;45045;45.440;9.178;2023-07-08T09:59:57;7.72;;;3.75;;
32399;SDS011;45045;45.440;9.178;2023-07-08T10:05:41;9.60;;;4.47;;
32399;SDS011;45045;45.440;9.178;2023-07-08T10:08:13;8.82;;;4.97;;
32399;SDS011;45045;45.440;9.178;2023-07-08T10:10:41;6.70;;;4.40;;
32399;SDS011;45045;45.440;9.178;2023-07-08T10:13:21;7.97;;;4.28;;
32399;SDS011;45045;45.440;9.178;2023-07-08T10:18:52;6.93;;;4.13;;
32399;SDS011;45045;45.440;9.178;2023-07-08T10:26:40;8.38;;;4.20;;
32399;SDS011;45045;45.440;9.178;2023-07-08T10:29:31;7.40;;;4.03;;
32399;SDS011;45045;45.440;9.178;2023-07-08T10:35:01;7.50;;;4.20;;
32399;SDS011;45045;45.440;9.178;2023-07-08T10:37:50;9.70;;;4.97;;
32399;SDS011;45045;45.440;9.178;2023-07-08T10:54:19;8.13;;;4.55;;
32399;SDS011;45045;45.440;9.178;2023-07-08T10:57:00;7.20;;;4.75;;
32399;SDS011;45045;45.440;9.178;2023-07-08T11:02:23;7.57;;;4.63;;
32399;SDS011;45045;45.440;9.178;2023-07-08T11:05:00;6.80;;;4.28;;
32399;SDS011;45045;45.440;9.178;2023-07-08T11:07:41;8.90;;;4.10;;
32399;SDS011;45045;45.440;9.178;2023-07-08T11:10:17;7.45;;;4.25;;
32399;SDS011;45045;45.440;9.178;2023-07-08T11:12:45;7.38;;;4.60;;
32399;SDS011;45045;45.440;9.178;2023-07-08T11:15:23;7.35;;;4.53;;
32399;SDS011;45045;45.440;9.178;2023-07-08T11:17:59;7.10;;;4.50;;
32399;SDS011;45045;45.440;9.178;2023-07-08T11:25:50;8.88;;;4.78;;
32399;SDS011;45045;45.440;9.178;2023-07-08T11:28:24;8.57;;;5.05;;
32399;SDS011;45045;45.440;9.178;2023-07-08T11:30:50;7.30;;;4.25;;
32399;SDS011;45045;45.440;9.178;2023-07-08T11:33:18;9.00;;;4.60;;
32399;SDS011;45045;45.440;9.178;2023-07-08T11:38:16;7.53;;;4.28;;
32399;SDS011;45045;45.440;9.178;2023-07-08T11:43:18;8.00;;;4.50;;
32399;SDS011;45045;45.440;9.178;2023-07-08T11:45:46;7.40;;;3.90;;
32399;SDS011;45045;45.440;9.178;2023-07-08T11:48:16;6.32;;;4.25;;
32399;SDS011;45045;45.440;9.178;2023-07-08T11:50:46;7.30;;;4.20;;
32399;SDS011;45045;45.440;9.178;2023-07-08T11:53:35;9.07;;;4.35;;
32399;SDS011;45045;45.440;9.178;2023-07-08T11:56:18;11.48;;;5.60;;
32399;SDS011;45045;45.440;9.178;2023-07-08T12:03:59;6.28;;;3.95;;
32399;SDS011;45045;45.440;9.178;2023-07-08T12:06:42;9.63;;;4.05;;
32399;SDS011;45045;45.440;9.178;2023-07-08T12:09:26;11.82;;;6.43;;
32399;SDS011;45045;45.440;9.178;2023-07-08T12:12:00;8.90;;;4.82;;
32399;SDS011;45045;45.440;9.178;2023-07-08T12:14:30;9.35;;;4.35;;
32399;SDS011;45045;45.440;9.178;2023-07-08T12:16:57;7.38;;;4.53;;
32399;SDS011;45045;45.440;9.178;2023-07-08T12:19:23;8.18;;;4.47;;
32399;SDS011;45045;45.440;9.178;2023-07-08T12:21:53;6.03;;;3.83;;
32399;SDS011;45045;45.440;9.178;2023-07-08T12:24:19;9.85;;;4.47;;
32399;SDS011;45045;45.440;9.178;2023-07-08T12:29:20;8.23;;;4.43;;
32399;SDS011;45045;45.440;9.178;2023-07-08T12:31:45;7.53;;;4.18;;
32399;SDS011;45045;45.440;9.178;2023-07-08T12:34:13;6.55;;;4.45;;
32399;SDS011;45045;45.440;9.178;2023-07-08T12:36:41;7.55;;;4.50;;
32399;SDS011;45045;45.440;9.178;2023-07-08T12:39:08;7.80;;;4.03;;
32399;SDS011;45045;45.440;9.178;2023-07-08T12:41:39;8.85;;;4.47;;
32399;SDS011;45045;45.440;9.178;2023-07-08T12:44:08;8.23;;;3.88;;
32399;SDS011;45045;45.440;9.178;2023-07-08T12:46:44;7.43;;;4.22;;
32399;SDS011;45045;45.440;9.178;2023-07-08T12:49:09;8.27;;;4.68;;
32399;SDS011;45045;45.440;9.178;2023-07-08T12:51:35;8.18;;;4.70;;
32399;SDS011;45045;45.440;9.178;2023-07-08T12:54:01;7.63;;;4.07;;
32399;SDS011;45045;45.440;9.178;2023-07-08T12:56:26;6.28;;;4.32;;
32399;SDS011;45045;45.440;9.178;2023-07-08T12:58:53;7.28;;;4.10;;
32399;SDS011;45045;45.440;9.178;2023-07-08T13:01:23;6.05;;;3.97;;
32399;SDS011;45045;45.440;9.178;2023-07-08T13:03:55;7.30;;;4.05;;
32399;SDS011;45045;45.440;9.178;2023-07-08T13:06:27;6.68;;;4.22;;
32399;SDS011;45045;45.440;9.178;2023-07-08T13:08:57;10.32;;;4.38;;
32399;SDS011;45045;45.440;9.178;2023-07-08T13:11:29;9.13;;;4.05;;
32399;SDS011;45045;45.440;9.178;2023-07-08T13:13:55;6.70;;;4.28;;
32399;SDS011;45045;45.440;9.178;2023-07-08T13:16:25;6.18;;;3.80;;
32399;SDS011;45045;45.440;9.178;2023-07-08T13:18:55;9.35;;;5.03;;
32399;SDS011;45045;45.440;9.178;2023-07-08T13:21:21;8.82;;;4.75;;
32399;SDS011;45045;45.440;9.178;2023-07-08T13:23:49;7.53;;;4.35;;
32399;SDS011;45045;45.440;9.178;2023-07-08T13:26:15;7.93;;;4.47;;
32399;SDS011;45045;45.440;9.178;2023-07-08T13:31:20;7.90;;;4.50;;
32399;SDS011;45045;45.440;9.178;2023-07-08T13:33:49;7.63;;;4.43;;
32399;SDS011;45045;45.440;9.178;2023-07-08T13:36:16;7.68;;;4.07;;
32399;SDS011;45045;45.440;9.178;2023-07-08T13:38:44;7.18;;;4.30;;
32399;SDS011;45045;45.440;9.178;2023-07-08T13:41:10;8.50;;;4.38;;
32399;SDS011;45045;45.440;9.178;2023-07-08T13:43:47;8.75;;;4.18;;
32399;SDS011;45045;45.440;9.178;2023-07-08T13:49:07;8.55;;;4.70;;
32399;SDS011;45045;45.440;9.178;2023-07-08T13:51:39;7.70;;;4.15;;
32399;SDS011;45045;45.440;9.178;2023-07-08T13:54:13;7.88;;;4.45;;
32399;SDS011;45045;45.440;9.178;2023-07-08T13:56:59;7.43;;;4.22;;
32399;SDS011;45045;45.440;9.178;2023-07-08T13:59:26;6.72;;;4.50;;
32399;SDS011;45045;45.440;9.178;2023-07-08T14:01:53;7.75;;;4.45;;
32399;SDS011;45045;45.440;9.178;2023-07-08T14:04:21;6.63;;;4.15;;
32399;SDS011;45045;45.440;9.178;2023-07-08T14:06:57;7.05;;;4.60;;
32399;SDS011;45045;45.440;9.178;2023-07-08T14:09:23;6.88;;;3.67;;
32399;SDS011;45045;45.440;9.178;2023-07-08T14:11:49;6.82;;;4.15;;
32399;SDS011;45045;45.440;9.178;2023-07-08T14:14:16;8.23;;;4.70;;
32399;SDS011;45045;45.440;9.178;2023-07-08T14:16:47;7.28;;;4.45;;
32399;SDS011;45045;45.440;9.178;2023-07-08T14:19:22;14.90;;;4.63;;
32399;SDS011;45045;45.440;9.178;2023-07-08T14:21:51;7.35;;;4.75;;
32399;SDS011;45045;45.440;9.178;2023-07-08T14:24:20;6.90;;;4.22;;
32399;SDS011;45045;45.440;9.178;2023-07-08T14:26:46;7.15;;;4.55;;
32399;SDS011;45045;45.440;9.178;2023-07-08T14:29:12;6.82;;;4.20;;
32399;SDS011;45045;45.440;9.178;2023-07-08T14:31:39;8.27;;;4.93;;
32399;SDS011;45045;45.440;9.178;2023-07-08T14:34:06;7.28;;;4.18;;
32399;SDS011;45045;45.440;9.178;2023-07-08T14:36:33;12.05;;;4.05;;
32399;SDS011;45045;45.440;9.178;2023-07-08T14:39:00;9.25;;;4.40;;
32399;SDS011;45045;45.440;9.178;2023-07-08T14:41:26;8.88;;;4.78;;
32399;SDS011;45045;45.440;9.178;2023-07-08T14:43:53;6.55;;;4.28;;
32399;SDS011;45045;45.440;9.178;2023-07-08T14:46:24;7.85;;;4.70;;
32399;SDS011;45045;45.440;9.178;2023-07-08T14:48:50;8.93;;;4.43;;
32399;SDS011;45045;45.440;9.178;2023-07-08T14:51:16;9.65;;;4.60;;
32399;SDS011;45045;45.440;9.178;2023-07-08T14:53:41;9.02;;;4.55;;
32399;SDS011;45045;45.440;9.178;2023-07-08T14:56:14;7.63;;;4.50;;
32399;SDS011;45045;45.440;9.178;2023-07-08T14:58:43;7.70;;;4.47;;
32399;SDS011;45045;45.440;9.178;2023-07-08T15:01:15;6.88;;;4.32;;
32399;SDS011;45045;45.440;9.178;2023-07-08T15:03:44;7.03;;;4.32;;
32399;SDS011;45045;45.440;9.178;2023-07-08T15:06:10;7.20;;;4.28;;
32399;SDS011;45045;45.440;9.178;2023-07-08T15:08:36;7.20;;;4.32;;
32399;SDS011;45045;45.440;9.178;2023-07-08T15:11:02;6.40;;;4.05;;
32399;SDS011;45045;45.440;9.178;2023-07-08T15:13:31;8.15;;;4.20;;
32399;SDS011;45045;45.440;9.178;2023-07-08T15:15:57;8.65;;;4.82;;
32399;SDS011;45045;45.440;9.178;2023-07-08T15:18:23;7.10;;;4.25;;
32399;SDS011;45045;45.440;9.178;2023-07-08T15:20:49;6.95;;;4.50;;
32399;SDS011;45045;45.440;9.178;2023-07-08T15:23:15;9.68;;;4.53;;
32399;SDS011;45045;45.440;9.178;2023-07-08T15:25:41;7.15;;;4.35;;
32399;SDS011;45045;45.440;9.178;2023-07-08T15:28:16;6.90;;;3.92;;
32399;SDS011;45045;45.440;9.178;2023-07-08T15:30:58;7.28;;;4.30;;
32399;SDS011;45045;45.440;9.178;2023-07-08T15:33:26;6.97;;;4.47;;
32399;SDS011;45045;45.440;9.178;2023-07-08T15:35:52;8.23;;;5.57;;
32399;SDS011;45045;45.440;9.178;2023-07-08T15:38:18;6.97;;;4.50;;
32399;SDS011;45045;45.440;9.178;2023-07-08T15:40:43;7.07;;;4.40;;
32399;SDS011;45045;45.440;9.178;2023-07-08T15:43:11;8.63;;;4.70;;
32399;SDS011;45045;45.440;9.178;2023-07-08T15:45:38;6.90;;;4.63;;
32399;SDS011;45045;45.440;9.178;2023-07-08T15:48:08;7.22;;;4.70;;
32399;SDS011;45045;45.440;9.178;2023-07-08T15:50:41;6.13;;;4.45;;
32399;SDS011;45045;45.440;9.178;2023-07-08T15:53:07;7.60;;;4.15;;
32399;SDS011;45045;45.440;9.178;2023-07-08T15:55:36;7.75;;;4.22;;
32399;SDS011;45045;45.440;9.178;2023-07-08T16:00:33;8.27;;;4.65;;
32399;SDS011;45045;45.440;9.178;2023-07-08T16:03:02;8.73;;;4.47;;
32399;SDS011;45045;45.440;9.178;2023-07-08T16:05:31;7.13;;;4.35;;
32399;SDS011;45045;45.440;9.178;2023-07-08T16:08:00;7.57;;;4.53;;
32399;SDS011;45045;45.440;9.178;2023-07-08T16:10:25;8.55;;;4.95;;